createdAt,value
2023-02-09T00:00:41.721Z,-5.99
2023-02-09T00:03:44.562Z,-6.02
2023-02-09T00:06:46.864Z,-5.94
2023-02-09T00:09:51.065Z,-6.11
2023-02-09T00:13:11.869Z,-6.39
2023-02-09T00:16:14.147Z,-6.19
2023-02-09T00:19:17.299Z,-6.19
2023-02-09T00:22:19.550Z,-6.16
2023-02-09T00:25:21.808Z,-6.15
2023-02-09T00:28:24.038Z,-6.08
2023-02-09T00:31:27.223Z,-6.06
2023-02-09T00:34:29.437Z,-6.18
2023-02-09T00:37:32.406Z,-5.94
2023-02-09T00:40:34.757Z,-6.12
2023-02-09T00:43:37.057Z,-6.59
2023-02-09T00:46:40.012Z,-6.57
2023-02-09T00:49:42.340Z,-6.57
2023-02-09T00:52:44.540Z,-6.36
2023-02-09T00:55:47.460Z,-6.16
2023-02-09T00:58:49.719Z,-6.13
2023-02-09T01:01:51.987Z,-6.18
2023-02-09T01:04:57.188Z,-6.15
2023-02-09T01:07:59.531Z,-6.25
2023-02-09T01:11:10.795Z,-6.21
2023-02-09T01:14:13.111Z,-6.18
2023-02-09T01:17:15.383Z,-6.37
2023-02-09T01:20:18.297Z,-6.44
2023-02-09T01:23:20.527Z,-6.50
2023-02-09T01:26:22.933Z,-6.42
2023-02-09T01:29:27.486Z,-6.33
2023-02-09T01:32:29.797Z,-6.59
2023-02-09T01:35:32.437Z,-6.72
2023-02-09T01:38:34.903Z,-6.81
2023-02-09T01:41:37.490Z,-6.66
2023-02-09T01:44:39.735Z,-6.59
2023-02-09T01:47:46.690Z,-6.53
2023-02-09T01:50:51.767Z,-6.47
2023-02-09T01:53:54.350Z,-6.50
2023-02-09T01:57:01.799Z,-6.43
2023-02-09T02:00:10.228Z,-6.47
2023-02-09T02:03:25.504Z,-6.50
2023-02-09T02:06:27.742Z,-6.49
2023-02-09T02:09:30.816Z,-6.60
2023-02-09T02:12:33.897Z,-6.67
2023-02-09T02:16:06.868Z,-6.69
2023-02-09T02:19:18.412Z,-6.80
2023-02-09T02:22:55.873Z,-6.77
2023-02-09T02:26:10.285Z,-6.54
2023-02-09T02:29:27.818Z,-6.56
2023-02-09T02:32:45.223Z,-6.59
2023-02-09T02:35:55.339Z,-6.54
2023-02-09T02:39:11.798Z,-6.76
2023-02-09T02:42:49.353Z,-6.73
2023-02-09T02:46:00.310Z,-6.73
2023-02-09T02:49:24.211Z,-6.74
2023-02-09T02:52:26.488Z,-6.83
2023-02-09T02:55:32.762Z,-6.83
2023-02-09T02:58:39.112Z,-6.64
2023-02-09T03:01:53.746Z,-6.73
2023-02-09T03:04:58.096Z,-6.81
2023-02-09T03:08:00.390Z,-7.00
2023-02-09T03:11:02.607Z,-7.11
2023-02-09T03:14:10.750Z,-7.22
2023-02-09T03:17:25.268Z,-7.21
2023-02-09T03:20:33.268Z,-7.18
2023-02-09T03:23:45.514Z,-7.14
2023-02-09T03:27:13.736Z,-7.29
2023-02-09T03:30:18.420Z,-7.29
2023-02-09T03:33:24.048Z,-7.29
2023-02-09T03:36:33.350Z,-7.47
2023-02-09T03:39:35.658Z,-7.45
2023-02-09T03:42:37.907Z,-7.38
2023-02-09T03:45:40.287Z,-7.39
2023-02-09T03:48:42.498Z,-7.45
2023-02-09T03:51:44.770Z,-7.42
2023-02-09T03:54:47.919Z,-7.55
2023-02-09T03:57:50.155Z,-7.35
2023-02-09T04:00:52.372Z,-7.28
2023-02-09T04:03:54.620Z,-7.24
2023-02-09T04:06:57.496Z,-7.18
2023-02-09T04:09:59.811Z,-7.18
2023-02-09T04:13:02.057Z,-7.11
2023-02-09T04:16:04.741Z,-6.98
2023-02-09T04:19:09.186Z,-6.95
2023-02-09T04:22:11.470Z,-6.97
2023-02-09T04:25:19.401Z,-6.98
2023-02-09T04:28:21.725Z,-6.94
2023-02-09T04:31:24.612Z,-6.98
2023-02-09T04:34:27.015Z,-6.90
2023-02-09T04:37:29.200Z,-6.77
2023-02-09T04:40:31.433Z,-6.72
2023-02-09T04:43:34.202Z,-6.72
2023-02-09T04:46:36.762Z,-6.66
2023-02-09T04:49:38.972Z,-6.77
2023-02-09T04:52:41.708Z,-6.77
2023-02-09T04:55:45.712Z,-6.81
2023-02-09T04:59:06.359Z,-6.81
2023-02-09T05:02:08.673Z,-6.87
2023-02-09T05:05:10.922Z,-6.90
2023-02-09T05:08:13.134Z,-6.93
2023-02-09T05:11:15.658Z,-7.08
2023-02-09T05:14:18.681Z,-7.16
2023-02-09T05:17:21.291Z,-7.64
2023-02-09T05:20:23.494Z,-7.63
2023-02-09T05:23:25.719Z,-7.76
2023-02-09T05:26:27.957Z,-7.72
2023-02-09T05:29:30.208Z,-7.72
2023-02-09T05:32:32.372Z,-7.67
2023-02-09T05:35:35.499Z,-7.73
2023-02-09T05:38:38.139Z,-7.79
2023-02-09T05:41:59.098Z,-7.50
2023-02-09T05:45:01.275Z,-7.21
2023-02-09T05:48:03.727Z,-7.18
2023-02-09T05:51:06.124Z,-7.25
2023-02-09T05:54:08.403Z,-7.43
2023-02-09T05:57:10.808Z,-7.56
2023-02-09T06:00:14.904Z,-7.42
2023-02-09T06:03:17.167Z,-7.31
2023-02-09T06:06:19.437Z,-6.98
2023-02-09T06:09:22.427Z,-6.69
2023-02-09T06:12:24.822Z,-6.34
2023-02-09T06:15:27.081Z,-6.13
2023-02-09T06:18:29.414Z,-5.85
2023-02-09T06:21:40.570Z,-5.47
2023-02-09T06:24:42.830Z,-5.12
2023-02-09T06:27:45.043Z,-4.92
2023-02-09T06:30:53.125Z,-4.68
2023-02-09T06:33:56.367Z,-4.33
2023-02-09T06:36:58.644Z,-4.13
2023-02-09T06:40:00.850Z,-3.89
2023-02-09T06:43:03.151Z,-3.72
2023-02-09T06:46:09.921Z,-3.90
2023-02-09T06:49:12.327Z,-3.24
2023-02-09T06:52:14.603Z,-2.59
2023-02-09T06:55:17.255Z,-2.11
2023-02-09T06:58:22.310Z,-1.45
2023-02-09T07:01:24.769Z,-1.32
2023-02-09T07:04:26.978Z,-1.19
2023-02-09T07:07:32.347Z,-0.77
2023-02-09T07:10:34.973Z,0.17
2023-02-09T07:13:40.299Z,0.77
2023-02-09T07:16:42.611Z,1.69
2023-02-09T07:19:45.029Z,2.54
2023-02-09T07:22:51.261Z,3.18
2023-02-09T07:25:53.863Z,3.49
2023-02-09T07:28:56.180Z,4.11
2023-02-09T07:31:59.053Z,4.56
2023-02-09T07:35:01.545Z,5.18
2023-02-09T07:38:03.968Z,5.71
2023-02-09T07:41:08.167Z,6.03
2023-02-09T07:44:10.610Z,6.23
2023-02-09T07:47:15.297Z,6.17
2023-02-09T07:50:20.244Z,7.06
2023-02-09T07:53:22.477Z,7.93
2023-02-09T07:56:26.229Z,8.29
2023-02-09T07:59:28.865Z,8.34
2023-02-09T08:02:36.868Z,8.18
2023-02-09T08:05:52.884Z,7.99
2023-02-09T08:08:55.516Z,5.45
2023-02-09T08:12:02.661Z,5.01
2023-02-09T08:15:10.052Z,3.56
2023-02-09T08:18:17.560Z,3.39
2023-02-09T08:21:25.327Z,4.39
2023-02-09T08:24:28.458Z,4.72
2023-02-09T08:27:34.515Z,3.95
2023-02-09T08:30:37.006Z,4.32
2023-02-09T08:33:39.566Z,3.52
2023-02-09T08:36:41.993Z,3.90
2023-02-09T08:39:45.157Z,4.02
2023-02-09T08:42:47.729Z,3.33
2023-02-09T08:45:51.779Z,3.22
2023-02-09T08:48:54.318Z,4.52
2023-02-09T08:51:56.778Z,2.99
2023-02-09T08:54:59.804Z,3.62
2023-02-09T08:58:02.097Z,4.36
2023-02-09T09:01:05.507Z,4.69
2023-02-09T09:04:11.186Z,4.18
2023-02-09T09:07:13.775Z,3.78
2023-02-09T09:10:16.219Z,3.16
2023-02-09T09:13:19.527Z,3.99
2023-02-09T09:16:23.198Z,3.33
2023-02-09T09:19:26.770Z,3.81
2023-02-09T09:22:29.119Z,4.25
2023-02-09T09:25:31.474Z,4.02
2023-02-09T09:28:39.807Z,3.98
2023-02-09T09:31:42.240Z,3.20
2023-02-09T09:34:45.105Z,3.67
2023-02-09T09:37:47.447Z,4.29
2023-02-09T09:40:49.989Z,4.21
2023-02-09T09:43:54.163Z,3.83
2023-02-09T09:47:01.271Z,3.54
2023-02-09T09:50:09.583Z,2.81
2023-02-09T09:53:35.100Z,3.26
2023-02-09T09:56:39.031Z,4.12
2023-02-09T09:59:44.176Z,3.26
2023-02-09T10:02:46.780Z,3.57
2023-02-09T10:05:56.290Z,3.62
2023-02-09T10:09:15.213Z,3.81
2023-02-09T10:12:32.744Z,3.97
2023-02-09T10:15:36.969Z,3.62
2023-02-09T10:18:40.665Z,3.54
2023-02-09T10:21:43.397Z,3.01
2023-02-09T10:24:48.993Z,3.47
2023-02-09T10:27:51.358Z,3.54
2023-02-09T10:30:57.459Z,4.32
2023-02-09T10:34:08.834Z,4.96
2023-02-09T10:37:18.855Z,4.65
2023-02-09T10:40:30.859Z,4.17
2023-02-09T10:43:34.761Z,3.85
2023-02-09T10:46:37.896Z,4.90
2023-02-09T10:49:40.366Z,4.53
2023-02-09T10:53:05.230Z,5.35
2023-02-09T10:56:21.501Z,5.20
2023-02-09T10:59:25.588Z,5.31
2023-02-09T11:02:48.739Z,6.16
2023-02-09T11:06:20.227Z,6.99
2023-02-09T11:09:33.322Z,6.89
2023-02-09T11:12:38.829Z,7.20
2023-02-09T11:15:48.283Z,6.75
2023-02-09T11:19:05.886Z,7.22
2023-02-09T11:22:18.385Z,7.81
2023-02-09T11:25:28.934Z,9.45
2023-02-09T11:28:51.904Z,8.65
2023-02-09T11:32:05.545Z,8.66
2023-02-09T11:35:19.023Z,8.90
2023-02-09T11:38:33.520Z,9.24
2023-02-09T11:42:03.221Z,9.44
2023-02-09T11:45:14.291Z,10.40
2023-02-09T11:48:44.450Z,10.90
2023-02-09T11:51:51.536Z,9.27
2023-02-09T11:55:02.695Z,9.44
2023-02-09T11:58:33.566Z,9.20
2023-02-09T12:02:00.206Z,9.49
2023-02-09T12:05:11.078Z,9.95
2023-02-09T12:08:46.415Z,8.70
2023-02-09T12:11:59.548Z,10.10
2023-02-09T12:15:17.379Z,13.48
2023-02-09T12:18:26.771Z,11.00
2023-02-09T12:21:36.106Z,10.43
2023-02-09T12:24:40.002Z,11.04
2023-02-09T12:28:05.137Z,11.18
2023-02-09T12:31:09.220Z,12.52
2023-02-09T12:34:28.758Z,11.07
2023-02-09T12:37:31.131Z,10.34
2023-02-09T12:40:37.946Z,10.95
2023-02-09T12:43:41.848Z,10.51
2023-02-09T12:46:44.086Z,10.63
2023-02-09T12:49:46.633Z,11.93
2023-02-09T12:53:23.154Z,10.98
2023-02-09T12:56:29.046Z,9.96
2023-02-09T12:59:31.309Z,9.44
2023-02-09T13:02:50.878Z,9.14
2023-02-09T13:05:57.366Z,9.62
2023-02-09T13:09:03.747Z,9.95
2023-02-09T13:12:14.757Z,12.31
2023-02-09T13:15:18.893Z,11.73
2023-02-09T13:18:45.766Z,10.72
2023-02-09T13:22:26.208Z,8.52
2023-02-09T13:25:35.786Z,12.44
2023-02-09T13:28:38.230Z,12.04
2023-02-09T13:31:50.367Z,14.43
2023-02-09T13:34:59.599Z,12.99
2023-02-09T13:38:15.567Z,12.23
2023-02-09T13:41:36.839Z,11.84
2023-02-09T13:44:45.416Z,12.05
2023-02-09T13:47:48.192Z,12.52
2023-02-09T13:50:53.515Z,11.35
2023-02-09T13:54:01.741Z,11.01
2023-02-09T13:57:10.479Z,11.16
2023-02-09T14:00:19.721Z,10.87
2023-02-09T14:03:25.311Z,9.89
2023-02-09T14:06:45.353Z,9.90
2023-02-09T14:09:57.857Z,8.72
2023-02-09T14:13:07.373Z,9.89
2023-02-09T14:16:15.814Z,11.40
2023-02-09T14:19:31.570Z,9.57
2023-02-09T14:22:39.164Z,10.10
2023-02-09T14:25:42.214Z,11.58
2023-02-09T14:28:50.433Z,9.89
2023-02-09T14:31:58.446Z,8.80
2023-02-09T14:35:16.467Z,10.80
2023-02-09T14:38:38.419Z,11.28
2023-02-09T14:41:40.720Z,11.82
2023-02-09T14:44:50.906Z,9.06
2023-02-09T14:47:53.170Z,9.06
2023-02-09T14:51:01.593Z,7.97
2023-02-09T14:54:04.801Z,7.63
2023-02-09T14:57:10.920Z,7.40
2023-02-09T15:00:30.968Z,8.32
2023-02-09T15:03:33.171Z,7.95
2023-02-09T15:06:36.138Z,7.02
2023-02-09T15:09:38.789Z,6.60
2023-02-09T15:12:41.166Z,5.90
2023-02-09T15:15:44.258Z,6.33
2023-02-09T15:18:46.725Z,6.45
2023-02-09T15:22:02.007Z,6.60
2023-02-09T15:25:09.766Z,5.96
2023-02-09T15:28:24.695Z,5.14
2023-02-09T15:31:28.784Z,5.14
2023-02-09T15:34:31.004Z,4.31
2023-02-09T15:37:35.722Z,3.80
2023-02-09T15:41:01.835Z,3.35
2023-02-09T15:44:35.637Z,2.92
2023-02-09T15:47:49.699Z,2.68
2023-02-09T15:50:52.110Z,2.27
2023-02-09T15:53:57.257Z,1.96
2023-02-09T15:57:01.130Z,1.62
2023-02-09T16:00:06.019Z,1.38
2023-02-09T16:03:15.333Z,1.37
2023-02-09T16:06:20.673Z,1.24
2023-02-09T16:09:29.054Z,1.16
2023-02-09T16:12:31.406Z,0.96
2023-02-09T16:15:33.710Z,0.66
2023-02-09T16:18:35.871Z,0.44
2023-02-09T16:21:40.234Z,0.25
2023-02-09T16:24:45.620Z,0.21
2023-02-09T16:27:48.167Z,0.04
2023-02-09T16:30:55.524Z,-0.02
2023-02-09T16:33:57.835Z,-0.03
2023-02-09T16:37:00.158Z,-0.09
2023-02-09T16:40:02.537Z,-0.20
2023-02-09T16:43:05.889Z,-0.36
2023-02-09T16:46:11.546Z,-0.50
2023-02-09T16:49:44.287Z,-0.50
2023-02-09T16:52:47.005Z,-0.45
2023-02-09T16:55:49.866Z,-0.47
2023-02-09T16:58:54.537Z,-0.52
2023-02-09T17:02:03.947Z,-0.65
2023-02-09T17:05:37.175Z,-0.65
2023-02-09T17:08:46.390Z,-0.78
2023-02-09T17:11:49.124Z,-0.80
2023-02-09T17:14:51.336Z,-0.83
2023-02-09T17:17:56.110Z,-0.92
2023-02-09T17:21:05.890Z,-0.96
2023-02-09T17:24:17.540Z,-1.25
2023-02-09T17:27:19.845Z,-1.49
2023-02-09T17:30:22.122Z,-1.53
2023-02-09T17:33:28.123Z,-1.56
2023-02-09T17:36:31.246Z,-1.57
2023-02-09T17:39:33.793Z,-1.62
2023-02-09T17:42:37.191Z,-1.70
2023-02-09T17:45:39.583Z,-1.76
2023-02-09T17:48:42.579Z,-1.93
2023-02-09T17:51:49.069Z,-2.02
2023-02-09T17:54:51.287Z,-2.12
2023-02-09T17:57:59.016Z,-2.11
2023-02-09T18:01:01.423Z,-2.09
2023-02-09T18:04:03.869Z,-2.11
2023-02-09T18:07:06.951Z,-2.32
2023-02-09T18:10:09.753Z,-2.58
2023-02-09T18:13:19.593Z,-2.59
2023-02-09T18:16:21.805Z,-2.58
2023-02-09T18:19:25.086Z,-2.56
2023-02-09T18:22:27.617Z,-2.65
2023-02-09T18:25:33.531Z,-2.79
2023-02-09T18:28:35.794Z,-3.03
2023-02-09T18:31:38.167Z,-3.10
2023-02-09T18:34:40.520Z,-2.97
2023-02-09T18:37:42.821Z,-2.96
2023-02-09T18:40:45.167Z,-2.96
2023-02-09T18:43:47.645Z,-2.99
2023-02-09T18:46:50.030Z,-3.05
2023-02-09T18:49:52.335Z,-3.03
2023-02-09T18:52:57.228Z,-2.94
2023-02-09T18:56:06.329Z,-2.90
2023-02-09T18:59:08.668Z,-2.89
2023-02-09T19:02:19.502Z,-3.03
2023-02-09T19:05:21.706Z,-3.18
2023-02-09T19:08:23.948Z,-3.14
2023-02-09T19:11:26.164Z,-2.99
2023-02-09T19:14:37.147Z,-2.87
2023-02-09T19:17:40.513Z,-2.93
2023-02-09T19:20:42.829Z,-3.00
2023-02-09T19:23:45.025Z,-3.00
2023-02-09T19:26:47.300Z,-2.77
2023-02-09T19:29:55.835Z,-2.55
2023-02-09T19:32:58.795Z,-2.58
2023-02-09T19:36:01.117Z,-2.60
2023-02-09T19:39:03.433Z,-2.60
2023-02-09T19:42:06.374Z,-2.66
2023-02-09T19:45:09.048Z,-2.53
2023-02-09T19:48:12.059Z,-2.62
2023-02-09T19:51:14.360Z,-2.65
2023-02-09T19:54:16.844Z,-2.70
2023-02-09T19:57:20.146Z,-2.60
2023-02-09T20:00:22.783Z,-2.66
2023-02-09T20:03:25.377Z,-2.63
2023-02-09T20:06:30.724Z,-2.60
2023-02-09T20:09:33.274Z,-2.73
2023-02-09T20:12:35.628Z,-2.75
2023-02-09T20:15:42.307Z,-2.69
2023-02-09T20:18:46.738Z,-2.76
2023-02-09T20:21:49.701Z,-2.82
2023-02-09T20:24:51.923Z,-2.79
2023-02-09T20:27:54.348Z,-2.62
2023-02-09T20:30:56.613Z,-2.49
2023-02-09T20:33:58.849Z,-2.53
2023-02-09T20:37:01.165Z,-2.56
2023-02-09T20:40:05.127Z,-2.49
2023-02-09T20:43:26.035Z,-2.49
2023-02-09T20:46:48.685Z,-2.52
2023-02-09T20:49:50.895Z,-2.52
2023-02-09T20:52:53.980Z,-2.63
2023-02-09T20:55:56.214Z,-2.73
2023-02-09T20:58:58.978Z,-2.89
2023-02-09T21:02:01.229Z,-3.00
2023-02-09T21:05:05.057Z,-3.05
2023-02-09T21:08:09.167Z,-3.15
2023-02-09T21:11:11.542Z,-3.24
2023-02-09T21:14:22.027Z,-3.27
2023-02-09T21:17:30.238Z,-3.32
2023-02-09T21:20:34.832Z,-3.38
2023-02-09T21:23:37.351Z,-3.42
2023-02-09T21:26:41.338Z,-3.38
2023-02-09T21:29:43.649Z,-3.50
2023-02-09T21:32:45.925Z,-3.58
2023-02-09T21:35:48.199Z,-3.68
2023-02-09T21:38:50.394Z,-3.82
2023-02-09T21:42:11.228Z,-3.86
2023-02-09T21:45:13.462Z,-4.06
2023-02-09T21:48:16.702Z,-4.00
2023-02-09T21:51:20.014Z,-4.11
2023-02-09T21:54:22.493Z,-4.14
2023-02-09T21:57:26.130Z,-4.14
2023-02-09T22:00:30.808Z,-4.23
2023-02-09T22:03:33.177Z,-4.30
2023-02-09T22:06:35.552Z,-4.20
2023-02-09T22:09:37.831Z,-4.31
2023-02-09T22:12:40.228Z,-4.36
2023-02-09T22:15:43.627Z,-4.36
2023-02-09T22:18:45.902Z,-4.31
2023-02-09T22:21:48.116Z,-4.24
2023-02-09T22:24:50.517Z,-4.31
2023-02-09T22:27:52.835Z,-4.41
2023-02-09T22:30:55.873Z,-4.38
2023-02-09T22:33:58.609Z,-4.50
2023-02-09T22:37:00.845Z,-4.50
2023-02-09T22:40:03.230Z,-4.58
2023-02-09T22:43:05.697Z,-4.60
2023-02-09T22:46:07.910Z,-4.58
2023-02-09T22:49:19.269Z,-4.58
2023-02-09T22:52:21.523Z,-4.53
2023-02-09T22:55:23.793Z,-4.61
2023-02-09T22:58:25.973Z,-4.74
2023-02-09T23:01:29.115Z,-4.81
2023-02-09T23:04:32.910Z,-4.76
2023-02-09T23:07:35.194Z,-4.61
2023-02-09T23:10:37.406Z,-4.50
2023-02-09T23:13:40.471Z,-4.41
2023-02-09T23:16:44.196Z,-4.41
2023-02-09T23:19:46.538Z,-4.36
2023-02-09T23:22:49.059Z,-4.21
2023-02-09T23:25:51.985Z,-4.28
2023-02-09T23:28:59.834Z,-4.34
2023-02-09T23:32:02.241Z,-4.27
2023-02-09T23:35:04.788Z,-4.27
2023-02-09T23:38:07.152Z,-4.18
2023-02-09T23:41:13.126Z,-4.24
2023-02-09T23:44:15.415Z,-4.28
2023-02-09T23:47:17.672Z,-4.28
2023-02-09T23:50:19.905Z,-4.50
2023-02-09T23:53:22.107Z,-4.67
2023-02-09T23:56:24.686Z,-4.89
2023-02-09T23:59:26.934Z,-4.81
